createdAt,value
2018-02-13T00:00:02.025Z,56.41
2018-02-13T00:01:02.013Z,56.88
2018-02-13T00:02:02.011Z,57.45
2018-02-13T00:03:02.009Z,58.01
2018-02-13T00:04:02.007Z,58.29
2018-02-13T00:05:02.006Z,58.48
2018-02-13T00:06:02.007Z,58.58
2018-02-13T00:07:02.006Z,58.58
2018-02-13T00:08:01.995Z,58.48
2018-02-13T00:09:01.994Z,59.05
2018-02-13T00:10:02.007Z,59.33
2018-02-13T00:11:01.993Z,58.67
2018-02-13T00:12:01.986Z,58.67
2018-02-13T00:13:01.984Z,58.58
2018-02-13T00:14:01.981Z,58.86
2018-02-13T00:15:01.977Z,58.58
2018-02-13T00:16:01.980Z,59.23
2018-02-13T00:17:01.972Z,58.76
2018-02-13T00:18:01.969Z,58.86
2018-02-13T00:19:01.968Z,59.14
2018-02-13T00:20:02.022Z,58.86
2018-02-13T00:21:01.961Z,58.48
2018-02-13T00:22:01.960Z,58.11
2018-02-13T00:23:01.956Z,58.48
2018-02-13T00:24:01.953Z,58.67
2018-02-13T00:25:01.951Z,58.01
2018-02-13T00:26:01.954Z,57.54
2018-02-13T00:27:01.950Z,57.07
2018-02-13T00:28:01.944Z,57.16
2018-02-13T00:29:01.939Z,57.26
2018-02-13T00:30:01.943Z,57.07
2018-02-13T00:31:01.939Z,56.60
2018-02-13T00:32:01.937Z,56.60
2018-02-13T00:33:01.934Z,56.79
2018-02-13T00:34:01.933Z,57.35
2018-02-13T00:35:01.925Z,56.50
2018-02-13T00:36:01.926Z,56.22
2018-02-13T00:37:01.924Z,56.03
2018-02-13T00:38:01.922Z,56.03
2018-02-13T00:39:01.917Z,55.09
2018-02-13T00:40:01.914Z,54.81
2018-02-13T00:41:01.912Z,55.75
2018-02-13T00:42:01.909Z,55.65
2018-02-13T00:43:01.910Z,55.47
2018-02-13T00:44:01.903Z,55.18
2018-02-13T00:45:01.901Z,54.05
2018-02-13T00:46:01.894Z,53.86
2018-02-13T00:47:01.890Z,53.86
2018-02-13T00:48:01.888Z,54.05
2018-02-13T00:49:01.886Z,53.11
2018-02-13T00:50:01.890Z,53.30
2018-02-13T00:51:01.879Z,53.58
2018-02-13T00:52:01.883Z,53.77
2018-02-13T00:53:01.876Z,53.77
2018-02-13T00:54:01.874Z,54.24
2018-02-13T00:55:01.869Z,54.33
2018-02-13T00:56:01.866Z,54.43
2018-02-13T00:57:01.863Z,54.52
2018-02-13T00:58:01.866Z,54.43
2018-02-13T00:59:01.856Z,53.67
2018-02-13T01:00:01.858Z,53.58
2018-02-13T01:01:01.850Z,53.67
2018-02-13T01:02:01.856Z,53.49
2018-02-13T01:03:01.846Z,53.30
2018-02-13T01:04:01.851Z,52.83
2018-02-13T01:05:01.841Z,52.73
2018-02-13T01:06:01.842Z,53.49
2018-02-13T01:07:01.834Z,53.30
2018-02-13T01:08:01.832Z,53.49
2018-02-13T01:09:01.835Z,53.67
2018-02-13T01:10:01.827Z,53.58
2018-02-13T01:11:01.827Z,53.30
2018-02-13T01:12:01.820Z,53.96
2018-02-13T01:13:01.818Z,53.86
2018-02-13T01:14:01.814Z,54.24
2018-02-13T01:15:01.814Z,54.62
2018-02-13T01:16:01.815Z,55.09
2018-02-13T01:17:01.815Z,54.99
2018-02-13T01:18:01.805Z,55.75
2018-02-13T01:19:01.802Z,55.84
2018-02-13T01:20:01.803Z,55.18
2018-02-13T01:21:01.795Z,55.18
2018-02-13T01:22:01.798Z,54.62
2018-02-13T01:23:01.796Z,54.90
2018-02-13T01:24:01.788Z,54.71
2018-02-13T01:25:01.840Z,54.90
2018-02-13T01:26:01.787Z,54.71
2018-02-13T01:27:01.784Z,54.50
2018-02-13T01:28:01.783Z,54.15
2018-02-13T01:29:01.777Z,54.78
2018-02-13T01:30:01.778Z,55.44
2018-02-13T01:31:01.768Z,55.18
2018-02-13T01:32:01.764Z,54.59
2018-02-13T01:33:01.764Z,54.22
2018-02-13T01:34:01.766Z,55.06
2018-02-13T01:35:01.756Z,54.99
2018-02-13T01:36:01.757Z,55.63
2018-02-13T01:37:01.751Z,55.63
2018-02-13T01:38:01.752Z,55.91
2018-02-13T01:39:01.745Z,55.91
2018-02-13T01:40:01.748Z,55.47
2018-02-13T01:41:01.744Z,55.75
2018-02-13T01:42:01.740Z,55.37
2018-02-13T01:43:01.737Z,54.40
2018-02-13T01:44:01.729Z,54.52
2018-02-13T01:45:01.730Z,54.40
2018-02-13T01:46:01.725Z,54.03
2018-02-13T01:47:01.720Z,53.93
2018-02-13T01:48:01.724Z,53.74
2018-02-13T01:49:01.715Z,53.84
2018-02-13T01:50:01.718Z,53.74
2018-02-13T01:51:01.715Z,54.40
2018-02-13T01:52:01.705Z,54.40
2018-02-13T01:53:01.709Z,54.40
2018-02-13T01:54:01.701Z,54.40
2018-02-13T01:55:01.695Z,54.40
2018-02-13T01:56:01.698Z,54.69
2018-02-13T01:57:01.696Z,54.59
2018-02-13T01:58:01.690Z,54.69
2018-02-13T01:59:01.689Z,55.16
2018-02-13T02:00:01.682Z,54.97
2018-02-13T02:01:01.685Z,54.97
2018-02-13T02:02:01.680Z,55.91
2018-02-13T02:03:01.676Z,55.63
2018-02-13T02:04:01.675Z,55.16
2018-02-13T02:05:01.672Z,55.06
2018-02-13T02:06:01.667Z,55.35
2018-02-13T02:07:01.670Z,55.82
2018-02-13T02:08:01.656Z,55.91
2018-02-13T02:09:01.659Z,55.72
2018-02-13T02:10:01.656Z,55.91
2018-02-13T02:11:01.652Z,56.38
2018-02-13T02:12:01.648Z,55.91
2018-02-13T02:13:01.696Z,55.91
2018-02-13T02:14:01.644Z,55.63
2018-02-13T02:15:01.632Z,55.82
2018-02-13T02:16:01.633Z,55.63
2018-02-13T02:17:01.633Z,54.97
2018-02-13T02:18:01.629Z,55.16
2018-02-13T02:19:01.621Z,56.57
2018-02-13T02:20:01.618Z,58.17
2018-02-13T02:21:01.615Z,59.11
2018-02-13T02:22:01.617Z,61.18
2018-02-13T02:23:01.614Z,62.68
2018-02-13T02:24:01.610Z,64.29
2018-02-13T02:25:01.607Z,64.38
2018-02-13T02:26:01.606Z,64.38
2018-02-13T02:27:01.600Z,64.19
2018-02-13T02:28:01.593Z,63.72
2018-02-13T02:29:01.594Z,62.78
2018-02-13T02:30:01.591Z,62.31
2018-02-13T02:31:01.586Z,62.12
2018-02-13T02:32:01.589Z,61.08
2018-02-13T02:33:01.581Z,60.52
2018-02-13T02:34:01.577Z,61.18
2018-02-13T02:35:01.572Z,61.27
2018-02-13T02:36:01.568Z,62.21
2018-02-13T02:37:01.561Z,63.34
2018-02-13T02:38:01.557Z,64.76
2018-02-13T02:39:01.559Z,65.61
2018-02-13T02:40:01.556Z,65.79
2018-02-13T02:41:01.547Z,65.79
2018-02-13T02:42:01.549Z,66.74
2018-02-13T02:43:01.538Z,67.02
2018-02-13T02:44:01.540Z,67.02
2018-02-13T02:45:01.532Z,67.11
2018-02-13T02:46:01.529Z,66.74
2018-02-13T02:47:01.530Z,66.17
2018-02-13T02:48:01.527Z,65.51
2018-02-13T02:49:01.523Z,64.95
2018-02-13T02:50:01.514Z,64.38
2018-02-13T02:51:01.515Z,64.10
2018-02-13T02:52:01.505Z,63.72
2018-02-13T02:53:01.502Z,63.53
2018-02-13T02:54:01.504Z,63.44
2018-02-13T02:55:01.500Z,63.72
2018-02-13T02:56:01.489Z,63.25
2018-02-13T02:57:01.488Z,63.44
2018-02-13T02:58:01.489Z,62.97
2018-02-13T02:59:01.484Z,63.63
2018-02-13T03:00:01.480Z,63.25
2018-02-13T03:01:01.472Z,63.06
2018-02-13T03:02:01.473Z,63.34
2018-02-13T03:03:01.468Z,63.25
2018-02-13T03:04:01.457Z,63.44
2018-02-13T03:05:01.456Z,63.34
2018-02-13T03:06:01.452Z,63.72
2018-02-13T03:07:01.445Z,63.44
2018-02-13T03:08:01.447Z,63.82
2018-02-13T03:09:01.438Z,63.82
2018-02-13T03:10:01.435Z,63.53
2018-02-13T03:11:01.436Z,63.53
2018-02-13T03:12:01.426Z,64.00
2018-02-13T03:13:01.429Z,64.10
2018-02-13T03:14:01.424Z,64.00
2018-02-13T03:15:01.414Z,63.72
2018-02-13T03:16:01.415Z,62.87
2018-02-13T03:17:01.412Z,62.50
2018-02-13T03:18:01.408Z,62.31
2018-02-13T03:19:01.402Z,60.99
2018-02-13T03:20:01.394Z,59.67
2018-02-13T03:21:01.389Z,59.30
2018-02-13T03:22:01.386Z,59.20
2018-02-13T03:23:01.387Z,59.30
2018-02-13T03:24:01.384Z,59.58
2018-02-13T03:25:01.374Z,58.92
2018-02-13T03:26:01.370Z,58.64
2018-02-13T03:27:01.371Z,58.83
2018-02-13T03:28:01.362Z,59.48
2018-02-13T03:29:01.358Z,59.95
2018-02-13T03:30:01.353Z,60.80
2018-02-13T03:31:01.356Z,60.80
2018-02-13T03:32:01.350Z,59.95
2018-02-13T03:33:01.399Z,60.05
2018-02-13T03:34:01.336Z,59.01
2018-02-13T03:35:01.340Z,58.64
2018-02-13T03:36:01.329Z,58.54
2018-02-13T03:37:01.325Z,58.07
2018-02-13T03:38:01.322Z,57.23
2018-02-13T03:39:01.316Z,56.57
2018-02-13T03:40:01.322Z,56.57
2018-02-13T03:41:01.309Z,56.38
2018-02-13T03:42:01.311Z,56.48
2018-02-13T03:43:01.307Z,57.23
2018-02-13T03:44:01.297Z,57.23
2018-02-13T03:45:01.293Z,57.32
2018-02-13T03:46:01.291Z,57.32
2018-02-13T03:47:01.286Z,56.48
2018-02-13T03:48:01.287Z,56.29
2018-02-13T03:49:01.283Z,56.38
2018-02-13T03:50:01.279Z,56.57
2018-02-13T03:51:01.275Z,56.19
2018-02-13T03:52:01.266Z,56.66
2018-02-13T03:53:01.263Z,56.38
2018-02-13T03:54:01.260Z,56.29
2018-02-13T03:55:01.254Z,56.29
2018-02-13T03:56:01.250Z,56.29
2018-02-13T03:57:01.247Z,56.10
2018-02-13T03:58:01.243Z,55.72
2018-02-13T03:59:01.240Z,56.10
2018-02-13T04:00:01.246Z,56.38
2018-02-13T04:01:01.232Z,56.01
2018-02-13T04:02:01.229Z,55.53
2018-02-13T04:03:01.229Z,55.72
2018-02-13T04:04:01.227Z,55.16
2018-02-13T04:05:01.217Z,54.97
2018-02-13T04:06:01.214Z,54.87
2018-02-13T04:07:01.215Z,54.12
2018-02-13T04:08:01.211Z,54.59
2018-02-13T04:09:01.209Z,54.97
2018-02-13T04:10:01.198Z,53.93
2018-02-13T04:11:01.195Z,53.27
2018-02-13T04:12:01.196Z,52.14
2018-02-13T04:13:01.192Z,52.33
2018-02-13T04:14:01.183Z,52.24
2018-02-13T04:15:01.181Z,52.24
2018-02-13T04:16:01.175Z,52.90
2018-02-13T04:17:01.176Z,53.08
2018-02-13T04:18:01.173Z,52.99
2018-02-13T04:19:01.170Z,53.56
2018-02-13T04:20:01.167Z,53.84
2018-02-13T04:21:01.159Z,54.03
2018-02-13T04:22:01.159Z,54.03
2018-02-13T04:23:01.155Z,53.84
2018-02-13T04:24:01.150Z,53.74
2018-02-13T04:25:01.148Z,53.65
2018-02-13T04:26:01.138Z,53.65
2018-02-13T04:27:01.141Z,53.74
2018-02-13T04:28:01.135Z,54.03
2018-02-13T04:29:01.128Z,54.03
2018-02-13T04:30:01.127Z,54.03
2018-02-13T04:31:01.119Z,54.40
2018-02-13T04:32:01.120Z,54.12
2018-02-13T04:33:01.117Z,55.35
2018-02-13T04:34:01.107Z,55.16
2018-02-13T04:35:01.108Z,54.97
2018-02-13T04:36:01.099Z,55.82
2018-02-13T04:37:01.096Z,56.10
2018-02-13T04:38:01.093Z,56.38
2018-02-13T04:39:01.088Z,57.04
2018-02-13T04:40:01.082Z,56.76
2018-02-13T04:41:01.081Z,56.10
2018-02-13T04:42:01.077Z,56.01
2018-02-13T04:43:01.071Z,55.91
2018-02-13T04:44:01.067Z,55.25
2018-02-13T04:45:01.072Z,55.25
2018-02-13T04:46:01.060Z,54.87
2018-02-13T04:47:01.057Z,55.35
2018-02-13T04:48:01.053Z,55.25
2018-02-13T04:49:01.054Z,55.72
2018-02-13T04:50:01.047Z,55.91
2018-02-13T04:51:01.046Z,55.91
2018-02-13T04:52:01.044Z,56.38
2018-02-13T04:53:01.038Z,56.57
2018-02-13T04:54:01.034Z,57.04
2018-02-13T04:55:01.032Z,57.42
2018-02-13T04:56:01.026Z,57.98
2018-02-13T04:57:01.022Z,57.51
2018-02-13T04:58:01.013Z,57.04
2018-02-13T04:59:01.014Z,56.19
2018-02-13T05:00:01.006Z,54.31
2018-02-13T05:01:01.008Z,53.08
2018-02-13T05:02:01.003Z,52.05
2018-02-13T05:03:01.005Z,51.20
2018-02-13T05:04:00.990Z,51.39
2018-02-13T05:05:00.992Z,51.20
2018-02-13T05:06:00.987Z,51.95
2018-02-13T05:07:00.981Z,51.29
2018-02-13T05:08:00.980Z,51.39
2018-02-13T05:09:00.977Z,51.29
2018-02-13T05:10:00.973Z,51.29
2018-02-13T05:11:01.026Z,50.82
2018-02-13T05:12:00.957Z,50.63
2018-02-13T05:13:00.952Z,50.73
2018-02-13T05:14:00.950Z,51.58
2018-02-13T05:15:00.951Z,51.48
2018-02-13T05:16:00.944Z,51.39
2018-02-13T05:17:00.942Z,51.29
2018-02-13T05:18:00.939Z,51.58
2018-02-13T05:19:00.928Z,51.39
2018-02-13T05:20:00.923Z,51.29
2018-02-13T05:21:00.919Z,51.20
2018-02-13T05:22:00.916Z,51.48
2018-02-13T05:23:00.917Z,52.33
2018-02-13T05:24:00.911Z,52.61
2018-02-13T05:25:00.909Z,52.99
2018-02-13T05:26:00.910Z,53.18
2018-02-13T05:27:00.900Z,52.99
2018-02-13T05:28:00.897Z,53.27
2018-02-13T05:29:00.893Z,53.37
2018-02-13T05:30:00.884Z,53.27
2018-02-13T05:31:00.878Z,53.56
2018-02-13T05:32:00.874Z,54.03
2018-02-13T05:33:00.876Z,54.12
2018-02-13T05:34:00.870Z,55.25
2018-02-13T05:35:00.867Z,54.97
2018-02-13T05:36:00.859Z,55.91
2018-02-13T05:37:00.860Z,56.29
2018-02-13T05:38:00.856Z,56.29
2018-02-13T05:39:00.850Z,56.48
2018-02-13T05:40:00.842Z,55.82
2018-02-13T05:41:00.843Z,56.19
2018-02-13T05:42:00.839Z,55.72
2018-02-13T05:43:00.832Z,54.59
2018-02-13T05:44:00.830Z,54.03
2018-02-13T05:45:00.827Z,53.93
2018-02-13T05:46:00.815Z,54.31
2018-02-13T05:47:00.811Z,54.31
2018-02-13T05:48:00.818Z,54.87
2018-02-13T05:49:00.806Z,54.78
2018-02-13T05:50:00.802Z,54.50
2018-02-13T05:51:00.801Z,54.03
2018-02-13T05:52:00.798Z,53.65
2018-02-13T05:53:00.788Z,52.52
2018-02-13T05:54:00.782Z,51.95
2018-02-13T05:55:00.777Z,51.29
2018-02-13T05:56:00.778Z,51.77
2018-02-13T05:57:00.769Z,52.24
2018-02-13T05:58:00.764Z,52.33
2018-02-13T05:59:00.765Z,52.33
2018-02-13T06:00:00.755Z,52.14
2018-02-13T06:01:00.759Z,52.05
2018-02-13T06:02:00.748Z,52.24
2018-02-13T06:03:00.749Z,52.61
2018-02-13T06:04:00.746Z,53.08
2018-02-13T06:05:00.739Z,52.42
2018-02-13T06:06:00.729Z,52.52
2018-02-13T06:07:00.733Z,51.58
2018-02-13T06:08:00.728Z,51.20
2018-02-13T06:09:00.717Z,51.39
2018-02-13T06:10:00.717Z,51.39
2018-02-13T06:11:00.708Z,51.39
2018-02-13T06:12:00.711Z,52.14
2018-02-13T06:13:00.699Z,52.05
2018-02-13T06:14:00.700Z,52.42
2018-02-13T06:15:00.696Z,52.80
2018-02-13T06:16:00.687Z,53.65
2018-02-13T06:17:00.683Z,54.97
2018-02-13T06:18:00.678Z,56.10
2018-02-13T06:19:00.674Z,56.48
2018-02-13T06:20:00.676Z,57.42
2018-02-13T06:21:00.664Z,58.26
2018-02-13T06:22:00.660Z,58.45
2018-02-13T06:23:00.661Z,58.17
2018-02-13T06:24:00.654Z,58.26
2018-02-13T06:25:00.647Z,57.79
2018-02-13T06:26:00.643Z,56.29
2018-02-13T06:27:00.647Z,55.91
2018-02-13T06:28:00.681Z,54.87
2018-02-13T06:29:00.631Z,54.87
2018-02-13T06:30:00.632Z,53.93
2018-02-13T06:31:00.627Z,53.18
2018-02-13T06:32:00.617Z,52.05
2018-02-13T06:33:00.615Z,50.92
2018-02-13T06:34:00.614Z,50.63
2018-02-13T06:35:00.613Z,49.88
2018-02-13T06:36:00.609Z,49.69
2018-02-13T06:37:00.596Z,49.22
2018-02-13T06:38:00.593Z,48.66
2018-02-13T06:39:00.588Z,48.10
2018-02-13T06:40:00.591Z,47.72
2018-02-13T06:41:00.587Z,48.10
2018-02-13T06:42:00.579Z,47.72
2018-02-13T06:43:00.575Z,47.53
2018-02-13T06:44:00.566Z,47.63
2018-02-13T06:45:00.562Z,47.53
2018-02-13T06:46:00.564Z,47.25
2018-02-13T06:47:00.559Z,47.63
2018-02-13T06:48:00.603Z,47.25
2018-02-13T06:49:00.544Z,47.53
2018-02-13T06:50:00.548Z,48.38
2018-02-13T06:51:00.535Z,49.13
2018-02-13T06:52:00.537Z,49.51
2018-02-13T06:53:00.533Z,49.88
2018-02-13T06:54:00.522Z,49.32
2018-02-13T06:55:00.523Z,49.13
2018-02-13T06:56:00.518Z,48.57
2018-02-13T06:57:00.515Z,48.10
2018-02-13T06:58:00.514Z,48.00
2018-02-13T06:59:00.501Z,47.53
2018-02-13T07:00:00.496Z,46.59
2018-02-13T07:01:00.497Z,46.59
2018-02-13T07:02:00.491Z,46.59
2018-02-13T07:03:00.481Z,46.69
2018-02-13T07:04:00.477Z,46.88
2018-02-13T07:05:00.471Z,47.16
2018-02-13T07:06:00.468Z,47.53
2018-02-13T07:07:00.463Z,47.34
2018-02-13T07:08:00.460Z,47.53
2018-02-13T07:09:00.454Z,47.63
2018-02-13T07:10:00.450Z,46.59
2018-02-13T07:11:00.449Z,46.50
2018-02-13T07:12:00.440Z,46.31
2018-02-13T07:13:00.441Z,45.93
2018-02-13T07:14:00.442Z,45.56
2018-02-13T07:15:00.432Z,44.90
2018-02-13T07:16:00.428Z,45.18
2018-02-13T07:17:00.422Z,44.80
2018-02-13T07:18:00.419Z,44.99
2018-02-13T07:19:00.415Z,45.37
2018-02-13T07:20:00.411Z,46.12
2018-02-13T07:21:00.407Z,46.03
2018-02-13T07:22:00.402Z,46.12
2018-02-13T07:23:00.391Z,45.46
2018-02-13T07:24:00.392Z,44.71
2018-02-13T07:25:00.384Z,44.33
2018-02-13T07:26:00.380Z,44.14
2018-02-13T07:27:00.373Z,44.99
2018-02-13T07:28:00.371Z,44.99
2018-02-13T07:29:00.369Z,45.37
2018-02-13T07:30:00.362Z,45.18
2018-02-13T07:31:00.360Z,44.99
2018-02-13T07:32:00.354Z,44.99
2018-02-13T07:33:00.356Z,44.43
2018-02-13T07:34:00.344Z,44.14
2018-02-13T07:35:00.405Z,44.33
2018-02-13T07:36:00.336Z,43.86
2018-02-13T07:37:00.341Z,43.67
2018-02-13T07:38:00.335Z,43.96
2018-02-13T07:39:00.330Z,43.77
2018-02-13T07:40:00.319Z,43.30
2018-02-13T07:41:00.319Z,43.67
2018-02-13T07:42:00.311Z,43.86
2018-02-13T07:43:00.311Z,43.86
2018-02-13T07:44:00.313Z,44.14
2018-02-13T07:45:00.304Z,44.90
2018-02-13T07:46:00.301Z,44.90
2018-02-13T07:47:00.295Z,44.52
2018-02-13T07:48:00.295Z,43.86
2018-02-13T07:49:00.284Z,42.73
2018-02-13T07:50:00.279Z,42.73
2018-02-13T07:51:00.279Z,42.64
2018-02-13T07:52:00.275Z,42.64
2018-02-13T07:53:00.273Z,42.92
2018-02-13T07:54:00.263Z,42.92
2018-02-13T07:55:00.257Z,43.11
2018-02-13T07:56:00.260Z,42.82
2018-02-13T07:57:00.255Z,42.54
2018-02-13T07:58:00.246Z,42.64
2018-02-13T07:59:00.241Z,43.01
2018-02-13T08:00:00.242Z,43.77
2018-02-13T08:01:00.235Z,44.71
2018-02-13T08:02:00.236Z,44.33
2018-02-13T08:03:00.224Z,43.58
2018-02-13T08:04:00.220Z,43.77
2018-02-13T08:05:00.222Z,43.96
2018-02-13T08:06:00.213Z,43.58
2018-02-13T08:07:00.208Z,42.82
2018-02-13T08:08:00.208Z,42.73
2018-02-13T08:09:00.201Z,41.88
2018-02-13T08:10:00.200Z,41.98
2018-02-13T08:11:00.201Z,42.07
2018-02-13T08:12:00.190Z,41.98
2018-02-13T08:13:00.191Z,42.82
2018-02-13T08:14:00.186Z,43.67
2018-02-13T08:15:00.196Z,44.33
2018-02-13T08:16:00.178Z,44.90
2018-02-13T08:17:00.179Z,44.99
2018-02-13T08:18:00.168Z,44.99
2018-02-13T08:19:00.168Z,44.45
2018-02-13T08:20:00.159Z,43.60
2018-02-13T08:21:00.154Z,43.13
2018-02-13T08:22:00.156Z,42.47
2018-02-13T08:23:00.146Z,42.10
2018-02-13T08:24:00.143Z,41.15
2018-02-13T08:25:00.144Z,39.64
2018-02-13T08:26:00.141Z,38.98
2018-02-13T08:27:00.131Z,38.14
2018-02-13T08:28:00.135Z,37.29
2018-02-13T08:29:00.127Z,36.35
2018-02-13T08:30:00.128Z,35.69
2018-02-13T08:31:00.119Z,34.94
2018-02-13T08:32:00.118Z,34.37
2018-02-13T08:33:00.114Z,33.43
2018-02-13T08:34:00.111Z,32.96
2018-02-13T08:35:00.109Z,34.28
2018-02-13T08:36:00.114Z,35.60
2018-02-13T08:37:00.103Z,36.54
2018-02-13T08:38:00.102Z,37.57
2018-02-13T08:39:00.097Z,38.80
2018-02-13T08:40:00.097Z,39.36
2018-02-13T08:41:00.098Z,39.20
2018-02-13T08:42:00.090Z,39.10
2018-02-13T08:43:00.094Z,38.72
2018-02-13T08:44:00.084Z,37.48
2018-02-13T08:45:00.106Z,37.50
2018-02-13T08:46:00.088Z,37.48
2018-02-13T08:47:00.079Z,38.63
2018-02-13T08:48:00.080Z,39.38
2018-02-13T08:49:00.082Z,39.29
2018-02-13T08:50:00.086Z,39.29
2018-02-13T08:51:00.073Z,38.91
2018-02-13T08:52:00.067Z,37.78
2018-02-13T08:53:00.066Z,36.36
2018-02-13T08:54:00.066Z,35.05
2018-02-13T08:55:00.063Z,33.83
2018-02-13T08:56:00.070Z,33.73
2018-02-13T08:57:00.067Z,32.30
2018-02-13T08:58:00.057Z,31.73
2018-02-13T08:59:00.063Z,31.84
2018-02-13T09:00:00.057Z,32.69
2018-02-13T09:01:00.072Z,32.11
2018-02-13T09:02:00.059Z,33.34
2018-02-13T09:03:00.057Z,34.94
2018-02-13T09:04:00.054Z,35.97
2018-02-13T09:05:00.053Z,34.66
2018-02-13T09:06:00.060Z,35.05
2018-02-13T09:07:00.050Z,35.71
2018-02-13T09:08:00.048Z,36.55
2018-02-13T09:09:00.047Z,36.46
2018-02-13T09:10:00.040Z,36.65
2018-02-13T09:11:00.042Z,35.24
2018-02-13T09:12:00.042Z,32.60
2018-02-13T09:13:00.040Z,31.66
2018-02-13T09:14:00.039Z,30.33
2018-02-13T09:15:00.033Z,31.75
2018-02-13T09:16:00.034Z,33.54
2018-02-13T09:17:00.029Z,34.95
2018-02-13T09:18:00.033Z,34.95
2018-02-13T09:19:00.029Z,35.14
2018-02-13T09:20:00.033Z,35.42
2018-02-13T09:21:00.033Z,35.80
2018-02-13T09:22:00.038Z,35.52
2018-02-13T09:23:00.036Z,36.55
2018-02-13T09:24:00.025Z,38.06
2018-02-13T09:25:00.019Z,39.57
2018-02-13T09:26:00.023Z,39.95
2018-02-13T09:27:00.027Z,38.63
2018-02-13T09:28:00.032Z,36.36
2018-02-13T09:29:00.022Z,35.24
2018-02-13T09:30:00.023Z,35.24
2018-02-13T09:31:00.015Z,35.33
2018-02-13T09:32:00.013Z,34.58
2018-02-13T09:33:00.016Z,33.64
2018-02-13T09:34:00.017Z,33.54
2018-02-13T09:35:00.012Z,32.69
2018-02-13T09:36:00.010Z,32.69
2018-02-13T09:37:00.021Z,34.01
2018-02-13T09:38:00.010Z,34.30
2018-02-13T09:39:00.008Z,35.33
2018-02-13T09:40:00.013Z,35.89
2018-02-13T09:41:00.010Z,36.74
2018-02-13T09:42:00.008Z,37.40
2018-02-13T09:43:00.018Z,36.95
2018-02-13T09:44:00.010Z,36.48
2018-02-13T09:45:00.011Z,35.82
2018-02-13T09:46:00.010Z,35.53
2018-02-13T09:47:00.011Z,33.47
2018-02-13T09:48:00.005Z,32.62
2018-02-13T09:49:00.008Z,32.05
2018-02-13T09:50:00.001Z,34.59
2018-02-13T09:51:00.000Z,34.78
2018-02-13T09:52:00.008Z,33.45
2018-02-13T09:53:00.012Z,32.22
2018-02-13T09:54:00.006Z,32.60
2018-02-13T09:55:00.002Z,33.54
2018-02-13T09:56:00.021Z,33.47
2018-02-13T09:57:00.009Z,33.45
2018-02-13T09:58:00.004Z,33.47
2018-02-13T09:59:00.015Z,32.99
2018-02-13T10:00:00.004Z,33.56
2018-02-13T10:01:00.003Z,32.43
2018-02-13T10:02:00.003Z,31.86
2018-02-13T10:03:00.001Z,31.67
2018-02-13T10:04:00.002Z,32.33
2018-02-13T10:05:00.011Z,32.14
2018-02-13T10:06:00.011Z,32.14
2018-02-13T10:07:00.009Z,33.47
2018-02-13T10:08:00.012Z,35.53
2018-02-13T10:09:00.013Z,34.03
2018-02-13T10:10:00.012Z,33.94
2018-02-13T10:11:00.011Z,32.90
2018-02-13T10:12:00.009Z,31.48
2018-02-13T10:13:00.007Z,30.92
2018-02-13T10:14:00.013Z,31.31
2018-02-13T10:15:00.012Z,30.08
2018-02-13T10:16:00.014Z,28.00
2018-02-13T10:17:00.019Z,27.92
2018-02-13T10:18:00.025Z,27.63
2018-02-13T10:19:00.015Z,27.82
2018-02-13T10:20:00.026Z,28.67
2018-02-13T10:21:00.016Z,28.48
2018-02-13T10:22:00.025Z,29.79
2018-02-13T10:23:00.023Z,29.69
2018-02-13T10:24:00.059Z,29.61
2018-02-13T10:25:00.039Z,29.61
2018-02-13T10:26:00.030Z,29.99
2018-02-13T10:27:00.035Z,31.48
2018-02-13T10:28:00.032Z,31.40
2018-02-13T10:29:00.028Z,32.07
2018-02-13T10:30:00.043Z,30.92
2018-02-13T10:31:00.029Z,30.18
2018-02-13T10:32:00.081Z,30.55
2018-02-13T10:33:00.043Z,31.99
2018-02-13T10:34:00.033Z,34.25
2018-02-13T10:35:00.046Z,33.48
2018-02-13T10:36:00.037Z,33.01
2018-02-13T10:37:00.051Z,30.36
2018-02-13T10:38:00.055Z,28.77
2018-02-13T10:39:00.043Z,30.08
2018-02-13T10:40:00.064Z,32.54
2018-02-13T10:41:00.067Z,32.44
2018-02-13T10:42:00.049Z,34.70
2018-02-13T10:43:00.056Z,33.39
2018-02-13T10:44:00.053Z,33.86
2018-02-13T10:45:00.070Z,33.39
2018-02-13T10:46:00.066Z,33.95
2018-02-13T10:47:00.066Z,32.16
2018-02-13T10:48:00.095Z,30.93
2018-02-13T10:49:00.071Z,30.84
2018-02-13T10:50:00.072Z,33.39
2018-02-13T10:51:00.069Z,33.29
2018-02-13T10:52:00.077Z,35.27
2018-02-13T10:53:00.075Z,37.25
2018-02-13T10:54:00.082Z,37.44
2018-02-13T10:55:00.086Z,36.03
2018-02-13T10:56:00.083Z,36.22
2018-02-13T10:57:00.086Z,36.03
2018-02-13T10:58:00.087Z,37.44
2018-02-13T10:59:00.095Z,38.85
2018-02-13T11:00:00.101Z,40.65
2018-02-13T11:01:00.101Z,39.61
2018-02-13T11:02:00.104Z,37.82
2018-02-13T11:03:00.107Z,35.93
2018-02-13T11:04:00.109Z,34.52
2018-02-13T11:05:00.115Z,33.67
2018-02-13T11:06:00.109Z,34.33
2018-02-13T11:07:00.118Z,32.25
2018-02-13T11:08:00.114Z,34.22
2018-02-13T11:09:00.118Z,36.40
2018-02-13T11:10:00.121Z,39.14
2018-02-13T11:11:00.122Z,38.59
2018-02-13T11:12:00.131Z,38.21
2018-02-13T11:13:00.134Z,36.71
2018-02-13T11:14:00.133Z,36.40
2018-02-13T11:15:00.138Z,37.16
2018-02-13T11:16:00.144Z,37.74
2018-02-13T11:17:00.146Z,37.18
2018-02-13T11:18:00.148Z,35.84
2018-02-13T11:19:00.210Z,37.73
2018-02-13T11:20:00.148Z,38.20
2018-02-13T11:21:00.152Z,37.25
2018-02-13T11:22:00.161Z,36.69
2018-02-13T11:23:00.166Z,37.73
2018-02-13T11:24:00.167Z,38.67
2018-02-13T11:25:00.163Z,38.76
2018-02-13T11:26:00.173Z,38.68
2018-02-13T11:27:00.176Z,39.25
2018-02-13T11:28:00.181Z,39.06
2018-02-13T11:29:00.182Z,38.87
2018-02-13T11:30:00.181Z,40.03
2018-02-13T11:31:00.189Z,38.80
2018-02-13T11:32:00.186Z,35.97
2018-02-13T11:33:00.196Z,35.88
2018-02-13T11:34:00.201Z,34.74
2018-02-13T11:35:00.203Z,34.65
2018-02-13T11:36:00.205Z,34.34
2018-02-13T11:37:00.205Z,33.97
2018-02-13T11:38:00.213Z,34.44
2018-02-13T11:39:00.211Z,35.88
2018-02-13T11:40:00.222Z,36.14
2018-02-13T11:41:00.226Z,36.14
2018-02-13T11:42:00.225Z,35.01
2018-02-13T11:43:00.235Z,35.69
2018-02-13T11:44:00.236Z,35.59
2018-02-13T11:45:00.236Z,32.74
2018-02-13T11:46:00.241Z,30.93
2018-02-13T11:47:00.248Z,30.38
2018-02-13T11:48:00.254Z,31.14
2018-02-13T11:49:00.253Z,31.89
2018-02-13T11:50:00.257Z,31.99
2018-02-13T11:51:00.267Z,33.40
2018-02-13T11:52:00.271Z,33.67
2018-02-13T11:53:00.271Z,32.73
2018-02-13T11:54:00.274Z,31.97
2018-02-13T11:55:00.279Z,32.56
2018-02-13T11:56:00.287Z,33.04
2018-02-13T11:57:00.286Z,32.46
2018-02-13T11:58:00.297Z,31.99
2018-02-13T11:59:00.300Z,32.18
2018-02-13T12:00:00.303Z,33.03
2018-02-13T12:01:00.309Z,34.06
2018-02-13T12:02:00.306Z,33.50
2018-02-13T12:03:00.311Z,34.91
2018-02-13T12:04:00.320Z,35.02
2018-02-13T12:05:00.320Z,32.93
2018-02-13T12:06:00.332Z,33.97
2018-02-13T12:07:00.328Z,31.63
2018-02-13T12:08:00.337Z,32.10
2018-02-13T12:09:00.341Z,30.96
2018-02-13T12:10:00.345Z,31.15
2018-02-13T12:11:00.350Z,32.29
2018-02-13T12:12:00.354Z,32.38
2018-02-13T12:13:00.354Z,32.18
2018-02-13T12:14:00.363Z,35.02
2018-02-13T12:15:00.367Z,34.91
2018-02-13T12:16:00.376Z,33.78
2018-02-13T12:17:00.370Z,34.06
2018-02-13T12:18:00.381Z,34.25
2018-02-13T12:19:00.380Z,32.67
2018-02-13T12:20:00.387Z,31.91
2018-02-13T12:21:00.388Z,31.53
2018-02-13T12:22:00.393Z,30.30
2018-02-13T12:23:00.398Z,29.36
2018-02-13T12:24:00.409Z,29.27
2018-02-13T12:25:00.413Z,30.51
2018-02-13T12:26:00.413Z,30.87
2018-02-13T12:27:00.417Z,29.91
2018-02-13T12:28:00.425Z,30.19
2018-02-13T12:29:00.426Z,30.77
2018-02-13T12:30:00.440Z,31.81
2018-02-13T12:31:00.442Z,32.38
2018-02-13T12:32:00.441Z,32.95
2018-02-13T12:33:00.446Z,33.04
2018-02-13T12:34:00.455Z,32.74
2018-02-13T12:35:00.454Z,33.03
2018-02-13T12:36:00.461Z,33.78
2018-02-13T12:37:00.471Z,35.38
2018-02-13T12:38:00.474Z,32.18
2018-02-13T12:39:00.480Z,31.61
2018-02-13T12:40:00.479Z,32.08
2018-02-13T12:41:00.483Z,31.61
2018-02-13T12:42:00.493Z,28.50
2018-02-13T12:43:00.495Z,31.23
2018-02-13T12:44:00.500Z,31.80
2018-02-13T12:45:00.503Z,31.80
2018-02-13T12:46:00.513Z,29.91
2018-02-13T12:47:00.512Z,29.63
2018-02-13T12:48:00.523Z,28.50
2018-02-13T12:49:00.522Z,29.72
2018-02-13T12:50:00.527Z,28.69
2018-02-13T12:51:00.529Z,29.83
2018-02-13T12:52:00.534Z,31.72